CZEM/ZEM METAR and TAF weather

Enter ICAO airport designator
Station Type Date Time Source
CZEM METAR 2019/10/16 20:00 UTC NOAA

CZEM 162000Z 32004KT 260V360 15SM BKN018 OVC035 06/01 A2990 RMK SC7SC1 LAST STFD OBS/NEXT 171300 UTC SLP126


Station Type Date Time Source
CZEM Decoded METAR 2019/10/16 20:00 UTC NOAA

Eastmain River Airport, Canada (CZEM) 52-14N 078-31W
Oct 16, 2019 - 04:00 PM EDT / 2019.10.16 2000 UTC
Wind: from the NW (320 degrees) at 5 MPH (4 KT) (direction variable):0
Visibility: 15 mile(s):0
Sky conditions: overcast
Temperature: 42 F (6 C)
Dew Point: 33 F (1 C)
Relative Humidity: 70%
Pressure (altimeter): 29.9 in. Hg (1012 hPa)
ob: CZEM 162000Z 32004KT 260V360 15SM BKN018 OVC035 06/01 A2990 RMK SC7SC1 LAST STFD OBS/NEXT 171300 UTC SLP126
cycle: 20

Station Type Date Time Source
CZEM TAF UTC NOAA

Error!

Example: see airport list